sensor_id;sensor_type;location;lat;lon;timestamp;pressure;altitude;pressure_sealevel;temperature;humidity
28027;BME280;15344;52.342;-1.290;2023-04-12T00:00:27;98158.85;;;7.54;100.00
28027;BME280;15344;52.342;-1.290;2023-04-12T00:02:53;98157.68;;;7.37;100.00
28027;BME280;15344;52.342;-1.290;2023-04-12T00:05:19;98158.68;;;7.41;100.00
28027;BME280;15344;52.342;-1.290;2023-04-12T00:07:44;98160.79;;;7.85;100.00
28027;BME280;15344;52.342;-1.290;2023-04-12T00:10:09;98160.63;;;7.98;100.00
28027;BME280;15344;52.342;-1.290;2023-04-12T00:12:35;98158.65;;;7.91;100.00
28027;BME280;15344;52.342;-1.290;2023-04-12T00:15:00;98161.25;;;7.67;100.00
28027;BME280;15344;52.342;-1.290;2023-04-12T00:17:26;98157.97;;;7.97;100.00
28027;BME280;15344;52.342;-1.290;2023-04-12T00:19:52;98158.92;;;7.37;100.00
28027;BME280;15344;52.342;-1.290;2023-04-12T00:22:17;98163.46;;;7.66;100.00
28027;BME280;15344;52.342;-1.290;2023-04-12T00:24:42;98154.77;;;7.58;100.00
28027;BME280;15344;52.342;-1.290;2023-04-12T00:27:08;98157.31;;;7.90;100.00
28027;BME280;15344;52.342;-1.290;2023-04-12T00:29:33;98165.45;;;7.76;100.00
28027;BME280;15344;52.342;-1.290;2023-04-12T00:31:59;98154.79;;;7.93;100.00
28027;BME280;15344;52.342;-1.290;2023-04-12T00:34:24;98158.27;;;8.12;100.00
28027;BME280;15344;52.342;-1.290;2023-04-12T00:36:50;98163.40;;;7.47;100.00
28027;BME280;15344;52.342;-1.290;2023-04-12T00:39:15;98166.52;;;7.44;100.00
28027;BME280;15344;52.342;-1.290;2023-04-12T00:41:41;98165.88;;;7.46;100.00
28027;BME280;15344;52.342;-1.290;2023-04-12T00:44:07;98163.33;;;7.86;100.00
28027;BME280;15344;52.342;-1.290;2023-04-12T00:46:32;98166.56;;;7.86;100.00
28027;BME280;15344;52.342;-1.290;2023-04-12T00:48:58;98171.47;;;8.03;100.00
28027;BME280;15344;52.342;-1.290;2023-04-12T00:51:23;98171.05;;;7.63;100.00
28027;BME280;15344;52.342;-1.290;2023-04-12T00:53:48;98170.38;;;7.56;100.00
28027;BME280;15344;52.342;-1.290;2023-04-12T00:56:14;98164.81;;;6.70;100.00
28027;BME280;15344;52.342;-1.290;2023-04-12T00:58:39;98161.37;;;7.44;100.00
28027;BME280;15344;52.342;-1.290;2023-04-12T01:01:05;98156.86;;;7.40;100.00
28027;BME280;15344;52.342;-1.290;2023-04-12T01:03:30;98154.59;;;7.76;100.00
28027;BME280;15344;52.342;-1.290;2023-04-12T01:06:10;98161.33;;;8.35;100.00
28027;BME280;15344;52.342;-1.290;2023-04-12T01:08:30;98167.95;;;8.16;100.00
28027;BME280;15344;52.342;-1.290;2023-04-12T01:10:52;98166.92;;;8.02;100.00
28027;BME280;15344;52.342;-1.290;2023-04-12T01:13:20;98166.91;;;8.10;100.00
28027;BME280;15344;52.342;-1.290;2023-04-12T01:15:42;98166.65;;;7.25;100.00
28027;BME280;15344;52.342;-1.290;2023-04-12T01:18:07;98170.60;;;7.29;100.00
28027;BME280;15344;52.342;-1.290;2023-04-12T01:20:32;98165.66;;;7.81;100.00
28027;BME280;15344;52.342;-1.290;2023-04-12T01:23:05;98167.55;;;7.73;100.00
28027;BME280;15344;52.342;-1.290;2023-04-12T01:25:35;98176.62;;;8.00;100.00
28027;BME280;15344;52.342;-1.290;2023-04-12T01:27:49;98192.62;;;7.25;100.00
28027;BME280;15344;52.342;-1.290;2023-04-12T01:30:14;98195.09;;;8.32;100.00
28027;BME280;15344;52.342;-1.290;2023-04-12T01:32:37;98198.86;;;8.39;100.00
28027;BME280;15344;52.342;-1.290;2023-04-12T01:35:08;98194.90;;;8.48;98.30
28027;BME280;15344;52.342;-1.290;2023-04-12T01:37:28;98190.83;;;8.88;96.35
28027;BME280;15344;52.342;-1.290;2023-04-12T01:39:53;98188.38;;;9.08;93.44
28027;BME280;15344;52.342;-1.290;2023-04-12T01:42:19;98175.47;;;10.41;89.09
28027;BME280;15344;52.342;-1.290;2023-04-12T01:44:45;98165.74;;;10.04;87.23
28027;BME280;15344;52.342;-1.290;2023-04-12T01:47:10;98159.12;;;10.28;84.77
28027;BME280;15344;52.342;-1.290;2023-04-12T01:49:42;98161.39;;;10.40;83.15
28027;BME280;15344;52.342;-1.290;2023-04-12T01:52:05;98151.59;;;10.73;81.31
28027;BME280;15344;52.342;-1.290;2023-04-12T01:54:29;98151.72;;;11.04;79.57
28027;BME280;15344;52.342;-1.290;2023-04-12T01:56:55;98149.56;;;10.31;80.43
28027;BME280;15344;52.342;-1.290;2023-04-12T01:59:18;98153.02;;;9.40;85.03
28027;BME280;15344;52.342;-1.290;2023-04-12T02:01:43;98152.66;;;9.87;84.52
28027;BME280;15344;52.342;-1.290;2023-04-12T02:04:08;98145.31;;;10.00;83.77
28027;BME280;15344;52.342;-1.290;2023-04-12T02:06:34;98144.86;;;9.30;84.06
28027;BME280;15344;52.342;-1.290;2023-04-12T02:09:01;98141.93;;;9.44;84.97
28027;BME280;15344;52.342;-1.290;2023-04-12T02:11:24;98144.84;;;9.21;86.10
28027;BME280;15344;52.342;-1.290;2023-04-12T02:13:50;98146.02;;;9.26;86.33
28027;BME280;15344;52.342;-1.290;2023-04-12T02:16:16;98151.01;;;8.85;86.87
28027;BME280;15344;52.342;-1.290;2023-04-12T02:18:41;98149.46;;;9.54;83.87
28027;BME280;15344;52.342;-1.290;2023-04-12T02:21:07;98152.66;;;9.12;84.39
28027;BME280;15344;52.342;-1.290;2023-04-12T02:23:32;98152.16;;;8.62;85.38
28027;BME280;15344;52.342;-1.290;2023-04-12T02:25:57;98149.28;;;8.68;87.68
28027;BME280;15344;52.342;-1.290;2023-04-12T02:28:23;98150.01;;;8.69;86.98
28027;BME280;15344;52.342;-1.290;2023-04-12T02:30:49;98148.44;;;9.11;85.27
28027;BME280;15344;52.342;-1.290;2023-04-12T02:33:14;98150.62;;;9.61;84.57
28027;BME280;15344;52.342;-1.290;2023-04-12T02:35:40;98145.01;;;9.54;83.85
28027;BME280;15344;52.342;-1.290;2023-04-12T02:38:05;98140.53;;;9.61;81.54
28027;BME280;15344;52.342;-1.290;2023-04-12T02:40:31;98139.32;;;9.87;79.37
28027;BME280;15344;52.342;-1.290;2023-04-12T02:42:56;98138.52;;;9.98;77.36
28027;BME280;15344;52.342;-1.290;2023-04-12T02:45:22;98138.43;;;9.55;78.87
28027;BME280;15344;52.342;-1.290;2023-04-12T02:47:47;98136.75;;;9.55;78.66
28027;BME280;15344;52.342;-1.290;2023-04-12T02:50:13;98130.49;;;10.00;79.09
28027;BME280;15344;52.342;-1.290;2023-04-12T02:52:38;98121.41;;;9.92;78.87
28027;BME280;15344;52.342;-1.290;2023-04-12T02:55:05;98120.62;;;9.76;78.28
28027;BME280;15344;52.342;-1.290;2023-04-12T02:57:29;98122.77;;;10.09;78.02
28027;BME280;15344;52.342;-1.290;2023-04-12T02:59:55;98117.71;;;9.54;76.73
28027;BME280;15344;52.342;-1.290;2023-04-12T03:02:21;98123.27;;;8.42;81.32
28027;BME280;15344;52.342;-1.290;2023-04-12T03:04:46;98117.39;;;8.86;83.53
28027;BME280;15344;52.342;-1.290;2023-04-12T03:07:11;98113.18;;;8.20;86.30
28027;BME280;15344;52.342;-1.290;2023-04-12T03:09:37;98108.47;;;7.52;90.02
28027;BME280;15344;52.342;-1.290;2023-04-12T03:12:03;98104.15;;;8.25;87.82
28027;BME280;15344;52.342;-1.290;2023-04-12T03:14:28;98108.82;;;8.53;86.82
28027;BME280;15344;52.342;-1.290;2023-04-12T03:16:54;98103.22;;;8.25;87.87
28027;BME280;15344;52.342;-1.290;2023-04-12T03:19:19;98106.87;;;8.52;88.47
28027;BME280;15344;52.342;-1.290;2023-04-12T03:21:45;98101.34;;;8.11;89.01
28027;BME280;15344;52.342;-1.290;2023-04-12T03:24:10;98096.14;;;7.93;90.92
28027;BME280;15344;52.342;-1.290;2023-04-12T03:26:36;98091.38;;;7.60;93.26
28027;BME280;15344;52.342;-1.290;2023-04-12T03:29:02;98091.44;;;8.21;90.24
28027;BME280;15344;52.342;-1.290;2023-04-12T03:31:27;98086.08;;;7.89;90.65
28027;BME280;15344;52.342;-1.290;2023-04-12T03:33:53;98093.36;;;8.11;89.51
28027;BME280;15344;52.342;-1.290;2023-04-12T03:36:18;98093.72;;;8.70;87.50
28027;BME280;15344;52.342;-1.290;2023-04-12T03:38:44;98091.60;;;8.23;89.79
28027;BME280;15344;52.342;-1.290;2023-04-12T03:41:09;98085.52;;;8.04;89.93
28027;BME280;15344;52.342;-1.290;2023-04-12T03:43:35;98087.13;;;8.50;87.57
28027;BME280;15344;52.342;-1.290;2023-04-12T03:46:01;98083.17;;;8.26;89.65
28027;BME280;15344;52.342;-1.290;2023-04-12T03:48:26;98087.54;;;8.79;87.21
28027;BME280;15344;52.342;-1.290;2023-04-12T03:50:52;98094.95;;;8.79;85.69
28027;BME280;15344;52.342;-1.290;2023-04-12T03:53:17;98094.38;;;8.46;87.69
28027;BME280;15344;52.342;-1.290;2023-04-12T03:55:43;98095.23;;;8.81;87.36
28027;BME280;15344;52.342;-1.290;2023-04-12T03:58:08;98093.40;;;8.60;86.56
28027;BME280;15344;52.342;-1.290;2023-04-12T04:00:34;98093.67;;;8.84;86.05
28027;BME280;15344;52.342;-1.290;2023-04-12T04:03:00;98089.37;;;8.33;88.51
28027;BME280;15344;52.342;-1.290;2023-04-12T04:05:25;98094.30;;;8.34;86.54
28027;BME280;15344;52.342;-1.290;2023-04-12T04:07:51;98096.03;;;8.78;86.89
28027;BME280;15344;52.342;-1.290;2023-04-12T04:10:16;98091.06;;;8.81;85.25
28027;BME280;15344;52.342;-1.290;2023-04-12T04:12:42;98091.51;;;7.76;88.13
28027;BME280;15344;52.342;-1.290;2023-04-12T04:15:08;98092.35;;;8.43;87.90
28027;BME280;15344;52.342;-1.290;2023-04-12T04:17:33;98089.53;;;7.18;92.53
28027;BME280;15344;52.342;-1.290;2023-04-12T04:19:58;98081.34;;;7.47;92.14
28027;BME280;15344;52.342;-1.290;2023-04-12T04:22:24;98084.94;;;7.54;91.16
28027;BME280;15344;52.342;-1.290;2023-04-12T04:24:49;98085.46;;;7.17;94.29
28027;BME280;15344;52.342;-1.290;2023-04-12T04:27:15;98083.57;;;6.99;96.36
28027;BME280;15344;52.342;-1.290;2023-04-12T04:29:41;98086.38;;;6.66;96.20
28027;BME280;15344;52.342;-1.290;2023-04-12T04:32:06;98081.98;;;5.85;100.00
28027;BME280;15344;52.342;-1.290;2023-04-12T04:34:32;98083.19;;;6.14;100.00
28027;BME280;15344;52.342;-1.290;2023-04-12T04:36:58;98086.22;;;6.20;100.00
28027;BME280;15344;52.342;-1.290;2023-04-12T04:39:25;98082.97;;;6.37;100.00
28027;BME280;15344;52.342;-1.290;2023-04-12T04:41:49;98082.28;;;6.19;100.00
28027;BME280;15344;52.342;-1.290;2023-04-12T04:44:14;98083.33;;;6.31;100.00
28027;BME280;15344;52.342;-1.290;2023-04-12T04:46:40;98078.14;;;6.52;98.27
28027;BME280;15344;52.342;-1.290;2023-04-12T04:49:06;98075.93;;;6.81;95.38
28027;BME280;15344;52.342;-1.290;2023-04-12T04:51:32;98070.99;;;7.30;93.15
28027;BME280;15344;52.342;-1.290;2023-04-12T04:53:57;98065.88;;;6.81;94.12
28027;BME280;15344;52.342;-1.290;2023-04-12T04:56:23;98056.50;;;7.21;92.52
28027;BME280;15344;52.342;-1.290;2023-04-12T04:58:48;98047.50;;;6.26;94.41
28027;BME280;15344;52.342;-1.290;2023-04-12T05:01:13;98043.96;;;7.28;91.84
28027;BME280;15344;52.342;-1.290;2023-04-12T05:03:39;98038.56;;;6.24;95.17
28027;BME280;15344;52.342;-1.290;2023-04-12T05:06:05;98029.78;;;6.58;95.76
28027;BME280;15344;52.342;-1.290;2023-04-12T05:08:30;98037.07;;;6.60;95.23
28027;BME280;15344;52.342;-1.290;2023-04-12T05:10:56;98036.47;;;6.11;100.00
28027;BME280;15344;52.342;-1.290;2023-04-12T05:13:21;98048.68;;;6.72;95.69
28027;BME280;15344;52.342;-1.290;2023-04-12T05:15:47;98055.92;;;5.87;99.78
28027;BME280;15344;52.342;-1.290;2023-04-12T05:18:13;98059.28;;;6.37;100.00
28027;BME280;15344;52.342;-1.290;2023-04-12T05:20:38;98063.15;;;6.20;100.00
28027;BME280;15344;52.342;-1.290;2023-04-12T05:23:04;98060.53;;;6.35;99.80
28027;BME280;15344;52.342;-1.290;2023-04-12T05:25:30;98059.09;;;6.14;100.00
28027;BME280;15344;52.342;-1.290;2023-04-12T05:27:55;98053.04;;;5.64;100.00
28027;BME280;15344;52.342;-1.290;2023-04-12T05:30:21;98055.98;;;5.39;100.00
28027;BME280;15344;52.342;-1.290;2023-04-12T05:32:46;98047.83;;;5.28;100.00
28027;BME280;15344;52.342;-1.290;2023-04-12T05:35:12;98048.04;;;5.80;100.00
28027;BME280;15344;52.342;-1.290;2023-04-12T05:37:38;98042.89;;;5.58;100.00
28027;BME280;15344;52.342;-1.290;2023-04-12T05:40:04;98047.12;;;5.76;100.00
28027;BME280;15344;52.342;-1.290;2023-04-12T05:42:29;98049.57;;;5.33;100.00
28027;BME280;15344;52.342;-1.290;2023-04-12T05:44:55;98052.48;;;4.87;100.00
28027;BME280;15344;52.342;-1.290;2023-04-12T05:47:20;98055.43;;;4.69;100.00
28027;BME280;15344;52.342;-1.290;2023-04-12T05:49:46;98050.31;;;4.87;100.00
28027;BME280;15344;52.342;-1.290;2023-04-12T05:52:12;98042.47;;;5.68;100.00
28027;BME280;15344;52.342;-1.290;2023-04-12T05:54:37;98038.25;;;5.64;100.00
28027;BME280;15344;52.342;-1.290;2023-04-12T05:57:03;98034.40;;;5.83;100.00
28027;BME280;15344;52.342;-1.290;2023-04-12T05:59:29;98032.90;;;5.79;100.00
28027;BME280;15344;52.342;-1.290;2023-04-12T06:01:54;98039.53;;;6.44;100.00
28027;BME280;15344;52.342;-1.290;2023-04-12T06:04:20;98038.41;;;5.35;100.00
28027;BME280;15344;52.342;-1.290;2023-04-12T06:06:46;98038.26;;;6.64;100.00
28027;BME280;15344;52.342;-1.290;2023-04-12T06:09:11;98036.75;;;5.92;100.00
28027;BME280;15344;52.342;-1.290;2023-04-12T06:11:36;98036.46;;;6.03;100.00
28027;BME280;15344;52.342;-1.290;2023-04-12T06:14:02;98035.46;;;5.97;100.00
28027;BME280;15344;52.342;-1.290;2023-04-12T06:16:28;98033.27;;;6.05;100.00
28027;BME280;15344;52.342;-1.290;2023-04-12T06:18:54;98034.25;;;6.14;100.00
28027;BME280;15344;52.342;-1.290;2023-04-12T06:21:19;98035.03;;;5.80;100.00
28027;BME280;15344;52.342;-1.290;2023-04-12T06:23:45;98031.77;;;5.82;100.00
28027;BME280;15344;52.342;-1.290;2023-04-12T06:26:10;98026.61;;;6.66;100.00
28027;BME280;15344;52.342;-1.290;2023-04-12T06:28:36;98026.46;;;6.07;100.00
28027;BME280;15344;52.342;-1.290;2023-04-12T06:31:01;98020.15;;;5.58;100.00
28027;BME280;15344;52.342;-1.290;2023-04-12T06:33:27;98015.08;;;6.26;100.00
28027;BME280;15344;52.342;-1.290;2023-04-12T06:35:52;98011.88;;;5.46;100.00
28027;BME280;15344;52.342;-1.290;2023-04-12T06:38:18;98002.32;;;6.35;100.00
28027;BME280;15344;52.342;-1.290;2023-04-12T06:40:44;98000.46;;;5.91;100.00
28027;BME280;15344;52.342;-1.290;2023-04-12T06:43:09;97992.02;;;6.81;100.00
28027;BME280;15344;52.342;-1.290;2023-04-12T06:45:35;97994.00;;;6.90;100.00
28027;BME280;15344;52.342;-1.290;2023-04-12T06:48:00;97992.23;;;6.63;100.00
28027;BME280;15344;52.342;-1.290;2023-04-12T06:50:26;97986.96;;;6.89;100.00
28027;BME280;15344;52.342;-1.290;2023-04-12T06:52:52;97988.04;;;6.22;100.00
28027;BME280;15344;52.342;-1.290;2023-04-12T06:55:17;97987.52;;;6.13;100.00
28027;BME280;15344;52.342;-1.290;2023-04-12T06:57:44;97976.98;;;5.41;100.00
28027;BME280;15344;52.342;-1.290;2023-04-12T07:00:09;97977.89;;;6.35;100.00
28027;BME280;15344;52.342;-1.290;2023-04-12T07:02:34;97979.63;;;5.80;100.00
28027;BME280;15344;52.342;-1.290;2023-04-12T07:04:59;97978.03;;;6.13;100.00
28027;BME280;15344;52.342;-1.290;2023-04-12T07:07:25;97973.93;;;5.95;100.00
28027;BME280;15344;52.342;-1.290;2023-04-12T07:09:51;97966.67;;;6.30;100.00
28027;BME280;15344;52.342;-1.290;2023-04-12T07:12:16;97963.05;;;6.75;100.00
28027;BME280;15344;52.342;-1.290;2023-04-12T07:14:42;97949.65;;;6.43;100.00
28027;BME280;15344;52.342;-1.290;2023-04-12T07:17:07;97959.06;;;5.49;100.00
28027;BME280;15344;52.342;-1.290;2023-04-12T07:19:33;97954.58;;;5.78;100.00
28027;BME280;15344;52.342;-1.290;2023-04-12T07:21:59;97946.36;;;5.50;100.00
28027;BME280;15344;52.342;-1.290;2023-04-12T07:24:24;97947.48;;;6.64;100.00
28027;BME280;15344;52.342;-1.290;2023-04-12T07:26:52;97929.37;;;6.37;100.00
28027;BME280;15344;52.342;-1.290;2023-04-12T07:29:15;97925.24;;;8.01;100.00
28027;BME280;15344;52.342;-1.290;2023-04-12T07:31:40;97920.53;;;9.13;98.65
28027;BME280;15344;52.342;-1.290;2023-04-12T07:34:05;97915.50;;;8.92;95.57
28027;BME280;15344;52.342;-1.290;2023-04-12T07:36:31;97911.97;;;9.17;96.38
28027;BME280;15344;52.342;-1.290;2023-04-12T07:38:57;97914.22;;;9.25;96.44
28027;BME280;15344;52.342;-1.290;2023-04-12T07:41:22;97911.01;;;9.17;93.13
28027;BME280;15344;52.342;-1.290;2023-04-12T07:43:47;97916.35;;;9.71;89.04
28027;BME280;15344;52.342;-1.290;2023-04-12T07:46:13;97924.88;;;8.85;92.01
28027;BME280;15344;52.342;-1.290;2023-04-12T07:48:38;97930.73;;;9.35;93.49
28027;BME280;15344;52.342;-1.290;2023-04-12T07:51:04;97927.11;;;8.64;92.34
28027;BME280;15344;52.342;-1.290;2023-04-12T07:53:29;97935.58;;;7.19;98.11
28027;BME280;15344;52.342;-1.290;2023-04-12T07:55:55;97937.22;;;7.41;100.00
28027;BME280;15344;52.342;-1.290;2023-04-12T07:58:21;97933.42;;;7.11;99.74
28027;BME280;15344;52.342;-1.290;2023-04-12T08:00:46;97930.89;;;7.60;100.00
28027;BME280;15344;52.342;-1.290;2023-04-12T08:03:12;97924.62;;;6.74;100.00
28027;BME280;15344;52.342;-1.290;2023-04-12T08:05:36;97915.12;;;6.93;100.00
28027;BME280;15344;52.342;-1.290;2023-04-12T08:08:02;97920.75;;;7.66;100.00
28027;BME280;15344;52.342;-1.290;2023-04-12T08:10:28;97908.02;;;8.49;97.28
28027;BME280;15344;52.342;-1.290;2023-04-12T08:12:53;97893.40;;;9.07;94.82
28027;BME280;15344;52.342;-1.290;2023-04-12T08:15:18;97887.04;;;10.37;86.65
28027;BME280;15344;52.342;-1.290;2023-04-12T08:17:43;97879.80;;;10.40;88.32
28027;BME280;15344;52.342;-1.290;2023-04-12T08:20:10;97871.04;;;11.69;85.17
28027;BME280;15344;52.342;-1.290;2023-04-12T08:22:34;97868.45;;;11.45;79.39
28027;BME280;15344;52.342;-1.290;2023-04-12T08:25:00;97870.80;;;10.97;81.27
28027;BME280;15344;52.342;-1.290;2023-04-12T08:27:25;97868.27;;;11.66;78.06
28027;BME280;15344;52.342;-1.290;2023-04-12T08:29:50;97854.74;;;12.22;73.80
28027;BME280;15344;52.342;-1.290;2023-04-12T08:32:16;97838.73;;;12.39;73.69
28027;BME280;15344;52.342;-1.290;2023-04-12T08:34:41;97838.01;;;11.90;75.50
28027;BME280;15344;52.342;-1.290;2023-04-12T08:37:06;97827.91;;;12.57;73.26
28027;BME280;15344;52.342;-1.290;2023-04-12T08:39:32;97820.51;;;12.52;73.42
28027;BME280;15344;52.342;-1.290;2023-04-12T08:41:57;97818.42;;;12.55;68.60
28027;BME280;15344;52.342;-1.290;2023-04-12T08:44:32;97816.38;;;13.28;66.87
28027;BME280;15344;52.342;-1.290;2023-04-12T08:46:48;97822.75;;;12.64;63.75
28027;BME280;15344;52.342;-1.290;2023-04-12T08:49:13;97820.96;;;13.86;62.65
28027;BME280;15344;52.342;-1.290;2023-04-12T08:51:38;97819.09;;;13.16;60.68
28027;BME280;15344;52.342;-1.290;2023-04-12T08:54:04;97826.09;;;13.17;63.66
28027;BME280;15344;52.342;-1.290;2023-04-12T08:56:29;97814.00;;;12.42;63.59
28027;BME280;15344;52.342;-1.290;2023-04-12T08:58:54;97798.72;;;12.05;64.42
28027;BME280;15344;52.342;-1.290;2023-04-12T09:01:19;97788.01;;;12.81;62.37
28027;BME280;15344;52.342;-1.290;2023-04-12T09:03:45;97784.66;;;12.64;61.45
28027;BME280;15344;52.342;-1.290;2023-04-12T09:06:10;97775.41;;;12.86;62.99
28027;BME280;15344;52.342;-1.290;2023-04-12T09:08:34;97777.40;;;12.00;64.69
28027;BME280;15344;52.342;-1.290;2023-04-12T09:11:00;97776.55;;;11.75;65.31
28027;BME280;15344;52.342;-1.290;2023-04-12T09:13:30;97763.96;;;12.47;66.64
28027;BME280;15344;52.342;-1.290;2023-04-12T09:15:50;97767.96;;;11.96;69.19
28027;BME280;15344;52.342;-1.290;2023-04-12T09:18:15;97748.80;;;12.45;67.89
28027;BME280;15344;52.342;-1.290;2023-04-12T09:20:40;97748.50;;;13.30;67.60
28027;BME280;15344;52.342;-1.290;2023-04-12T09:23:15;97754.65;;;14.39;61.30
28027;BME280;15344;52.342;-1.290;2023-04-12T09:25:37;97752.33;;;14.25;60.00
28027;BME280;15344;52.342;-1.290;2023-04-12T09:27:56;97750.63;;;13.99;59.22
28027;BME280;15344;52.342;-1.290;2023-04-12T09:30:21;97741.22;;;14.38;55.57
28027;BME280;15344;52.342;-1.290;2023-04-12T09:32:47;97741.96;;;14.14;61.03
28027;BME280;15344;52.342;-1.290;2023-04-12T09:35:12;97740.78;;;13.96;57.72
28027;BME280;15344;52.342;-1.290;2023-04-12T09:37:37;97738.55;;;13.41;58.16
28027;BME280;15344;52.342;-1.290;2023-04-12T09:40:04;97733.18;;;12.96;60.81
28027;BME280;15344;52.342;-1.290;2023-04-12T09:42:28;97732.26;;;12.33;59.45
28027;BME280;15344;52.342;-1.290;2023-04-12T09:44:52;97719.76;;;13.53;60.27
28027;BME280;15344;52.342;-1.290;2023-04-12T09:47:18;97702.34;;;13.46;59.77
28027;BME280;15344;52.342;-1.290;2023-04-12T09:49:43;97698.64;;;13.66;58.36
28027;BME280;15344;52.342;-1.290;2023-04-12T09:52:10;97701.49;;;12.79;61.37
28027;BME280;15344;52.342;-1.290;2023-04-12T09:54:37;97697.82;;;11.49;60.98
28027;BME280;15344;52.342;-1.290;2023-04-12T09:56:59;97692.69;;;10.94;64.52
28027;BME280;15344;52.342;-1.290;2023-04-12T09:59:25;97676.81;;;10.44;65.19
28027;BME280;15344;52.342;-1.290;2023-04-12T10:01:50;97662.79;;;9.45;66.69
28027;BME280;15344;52.342;-1.290;2023-04-12T10:04:14;97660.85;;;9.03;70.58
28027;BME280;15344;52.342;-1.290;2023-04-12T10:06:40;97654.67;;;9.16;72.54
28027;BME280;15344;52.342;-1.290;2023-04-12T10:09:05;97649.35;;;9.26;72.98
28027;BME280;15344;52.342;-1.290;2023-04-12T10:11:31;97631.24;;;9.32;73.64
28027;BME280;15344;52.342;-1.290;2023-04-12T10:13:56;97617.83;;;8.99;73.56
28027;BME280;15344;52.342;-1.290;2023-04-12T10:16:21;97608.87;;;10.26;71.76
28027;BME280;15344;52.342;-1.290;2023-04-12T10:18:47;97604.86;;;10.73;69.95
28027;BME280;15344;52.342;-1.290;2023-04-12T10:21:13;97597.04;;;9.67;66.53
28027;BME280;15344;52.342;-1.290;2023-04-12T10:23:38;97592.70;;;8.97;70.58
28027;BME280;15344;52.342;-1.290;2023-04-12T10:26:04;97592.08;;;10.01;70.77
28027;BME280;15344;52.342;-1.290;2023-04-12T10:28:29;97581.83;;;10.14;67.90
28027;BME280;15344;52.342;-1.290;2023-04-12T10:30:56;97578.71;;;10.14;68.76
28027;BME280;15344;52.342;-1.290;2023-04-12T10:33:24;97572.99;;;9.94;70.33
28027;BME280;15344;52.342;-1.290;2023-04-12T10:35:50;97564.94;;;9.43;69.58
28027;BME280;15344;52.342;-1.290;2023-04-12T10:38:10;97567.65;;;9.52;74.60
28027;BME280;15344;52.342;-1.290;2023-04-12T10:40:35;97543.89;;;9.37;70.50
28027;BME280;15344;52.342;-1.290;2023-04-12T10:45:35;97544.59;;;9.76;69.92
28027;BME280;15344;52.342;-1.290;2023-04-12T10:47:56;97519.71;;;9.84;67.50
28027;BME280;15344;52.342;-1.290;2023-04-12T10:50:20;97502.80;;;9.48;68.15
28027;BME280;15344;52.342;-1.290;2023-04-12T10:52:42;97512.37;;;9.93;67.13
28027;BME280;15344;52.342;-1.290;2023-04-12T10:57:40;97507.22;;;9.42;67.92
28027;BME280;15344;52.342;-1.290;2023-04-12T10:59:59;97511.64;;;9.52;68.31
28027;BME280;15344;52.342;-1.290;2023-04-12T11:02:24;97499.40;;;10.04;69.21
28027;BME280;15344;52.342;-1.290;2023-04-12T11:07:15;97480.14;;;11.27;65.65
28027;BME280;15344;52.342;-1.290;2023-04-12T11:09:42;97471.68;;;10.44;64.29
28027;BME280;15344;52.342;-1.290;2023-04-12T11:12:11;97465.27;;;10.68;65.61
28027;BME280;15344;52.342;-1.290;2023-04-12T11:14:34;97467.50;;;9.97;66.68
28027;BME280;15344;52.342;-1.290;2023-04-12T11:19:22;97457.58;;;9.07;71.45
28027;BME280;15344;52.342;-1.290;2023-04-12T11:21:47;97451.51;;;9.72;71.82
28027;BME280;15344;52.342;-1.290;2023-04-12T11:24:14;97434.35;;;10.04;71.67
28027;BME280;15344;52.342;-1.290;2023-04-12T11:26:37;97432.18;;;10.07;68.82
28027;BME280;15344;52.342;-1.290;2023-04-12T11:29:06;97434.13;;;9.69;72.16
28027;BME280;15344;52.342;-1.290;2023-04-12T11:31:28;97421.03;;;10.14;71.25
28027;BME280;15344;52.342;-1.290;2023-04-12T11:33:53;97425.21;;;9.79;69.49
28027;BME280;15344;52.342;-1.290;2023-04-12T11:36:19;97416.03;;;10.53;70.06
28027;BME280;15344;52.342;-1.290;2023-04-12T11:38:46;97410.63;;;10.48;70.08
28027;BME280;15344;52.342;-1.290;2023-04-12T11:41:09;97410.42;;;9.69;71.05
28027;BME280;15344;52.342;-1.290;2023-04-12T11:43:35;97415.70;;;10.29;69.56
28027;BME280;15344;52.342;-1.290;2023-04-12T11:46:01;97422.62;;;9.70;76.72
28027;BME280;15344;52.342;-1.290;2023-04-12T11:48:26;97443.78;;;9.19;78.21
28027;BME280;15344;52.342;-1.290;2023-04-12T11:50:51;97459.07;;;8.08;95.14
28027;BME280;15344;52.342;-1.290;2023-04-12T11:53:16;97440.94;;;7.56;100.00
28027;BME280;15344;52.342;-1.290;2023-04-12T11:55:47;97437.63;;;7.68;100.00
28027;BME280;15344;52.342;-1.290;2023-04-12T11:58:07;97421.71;;;7.86;100.00
28027;BME280;15344;52.342;-1.290;2023-04-12T12:00:33;97413.22;;;7.73;100.00
28027;BME280;15344;52.342;-1.290;2023-04-12T12:02:58;97411.79;;;8.63;100.00
28027;BME280;15344;52.342;-1.290;2023-04-12T12:05:23;97408.80;;;8.61;100.00
28027;BME280;15344;52.342;-1.290;2023-04-12T12:07:49;97391.55;;;8.04;100.00
28027;BME280;15344;52.342;-1.290;2023-04-12T12:10:14;97394.32;;;8.70;100.00
28027;BME280;15344;52.342;-1.290;2023-04-12T12:12:42;97384.60;;;8.30;100.00
28027;BME280;15344;52.342;-1.290;2023-04-12T12:15:07;97383.92;;;8.55;100.00
28027;BME280;15344;52.342;-1.290;2023-04-12T12:17:35;97386.68;;;7.93;100.00
28027;BME280;15344;52.342;-1.290;2023-04-12T12:19:56;97371.29;;;7.89;100.00
28027;BME280;15344;52.342;-1.290;2023-04-12T12:22:21;97390.62;;;8.02;100.00
28027;BME280;15344;52.342;-1.290;2023-04-12T12:24:50;97383.82;;;8.23;100.00
28027;BME280;15344;52.342;-1.290;2023-04-12T12:27:12;97369.27;;;8.21;100.00
28027;BME280;15344;52.342;-1.290;2023-04-12T12:29:38;97355.18;;;7.94;100.00
28027;BME280;15344;52.342;-1.290;2023-04-12T12:32:09;97346.43;;;8.55;100.00
28027;BME280;15344;52.342;-1.290;2023-04-12T12:34:31;97343.52;;;8.64;99.92
28027;BME280;15344;52.342;-1.290;2023-04-12T12:36:54;97335.55;;;8.53;98.91
28027;BME280;15344;52.342;-1.290;2023-04-12T12:39:19;97329.21;;;8.88;98.12
28027;BME280;15344;52.342;-1.290;2023-04-12T12:41:52;97337.89;;;7.41;100.00
28027;BME280;15344;52.342;-1.290;2023-04-12T12:44:10;97333.08;;;7.00;100.00
28027;BME280;15344;52.342;-1.290;2023-04-12T12:46:35;97332.19;;;7.67;100.00
28027;BME280;15344;52.342;-1.290;2023-04-12T12:49:01;97316.70;;;7.98;100.00
28027;BME280;15344;52.342;-1.290;2023-04-12T12:51:26;97306.69;;;8.05;100.00